createdAt,value
2022-12-23T00:01:25.996Z,6.34
2022-12-23T00:03:53.148Z,6.32
2022-12-23T00:06:20.403Z,6.32
2022-12-23T00:08:47.264Z,6.34
2022-12-23T00:11:18.659Z,6.35
2022-12-23T00:14:04.394Z,6.36
2022-12-23T00:16:31.201Z,6.35
2022-12-23T00:18:57.709Z,6.35
2022-12-23T00:21:24.201Z,6.35
2022-12-23T00:23:51.834Z,6.34
2022-12-23T00:26:22.592Z,6.33
2022-12-23T00:28:49.229Z,6.34
2022-12-23T00:31:20.052Z,6.36
2022-12-23T00:33:49.130Z,6.37
2022-12-23T00:36:24.844Z,6.39
2022-12-23T00:39:10.270Z,6.38
2022-12-23T00:41:55.457Z,6.41
2022-12-23T00:44:22.041Z,6.42
2022-12-23T00:46:48.661Z,6.43
2022-12-23T00:49:52.853Z,6.45
2022-12-23T00:52:19.383Z,6.46
2022-12-23T00:54:45.890Z,6.45
2022-12-23T00:57:12.476Z,6.47
2022-12-23T00:59:39.006Z,6.48
2022-12-23T01:02:24.302Z,6.46
2022-12-23T01:05:09.603Z,6.47
2022-12-23T01:07:36.228Z,6.47
2022-12-23T01:10:03.004Z,6.49
2022-12-23T01:12:29.554Z,6.49
2022-12-23T01:14:56.087Z,6.49
2022-12-23T01:17:22.733Z,6.50
2022-12-23T01:19:49.399Z,6.49
2022-12-23T01:22:15.939Z,6.50
2022-12-23T01:24:42.462Z,6.50
2022-12-23T01:27:08.960Z,6.50
2022-12-23T01:29:35.534Z,6.51
2022-12-23T01:32:02.114Z,6.52
2022-12-23T01:34:35.998Z,6.52
2022-12-23T01:37:03.519Z,6.52
2022-12-23T01:39:30.134Z,6.53
2022-12-23T01:42:15.752Z,6.53
2022-12-23T01:44:56.461Z,6.52
2022-12-23T01:47:41.718Z,6.53
2022-12-23T01:50:19.920Z,6.53
2022-12-23T01:53:09.866Z,6.55
2022-12-23T01:55:41.488Z,6.55
2022-12-23T01:58:13.643Z,6.55
2022-12-23T02:01:00.689Z,6.54
2022-12-23T02:03:43.153Z,6.54
2022-12-23T02:06:32.483Z,6.51
2022-12-23T02:09:17.161Z,6.49
2022-12-23T02:11:53.577Z,6.46
2022-12-23T02:15:17.271Z,6.42
2022-12-23T02:18:17.664Z,6.41
2022-12-23T02:21:01.359Z,6.35
2022-12-23T02:24:05.003Z,6.32
2022-12-23T02:26:52.580Z,6.34
2022-12-23T02:29:22.022Z,6.32
2022-12-23T02:32:10.852Z,6.32
2022-12-23T02:34:54.467Z,6.32
2022-12-23T02:37:36.001Z,6.28
2022-12-23T02:40:40.817Z,6.31
2022-12-23T02:43:18.911Z,6.31
2022-12-23T02:46:05.561Z,6.33
2022-12-23T02:48:39.808Z,6.34
2022-12-23T02:51:09.504Z,6.35
2022-12-23T02:53:40.258Z,6.38
2022-12-23T02:56:09.752Z,6.40
2022-12-23T02:58:59.025Z,6.40
2022-12-23T03:01:30.549Z,6.39
2022-12-23T03:03:59.294Z,6.41
2022-12-23T03:06:33.337Z,6.41
2022-12-23T03:09:00.710Z,6.43
2022-12-23T03:11:40.390Z,6.44
2022-12-23T03:14:23.217Z,6.44
2022-12-23T03:17:28.450Z,6.45
2022-12-23T03:20:09.273Z,6.46
2022-12-23T03:22:40.755Z,6.44
2022-12-23T03:25:24.908Z,6.45
2022-12-23T03:28:04.280Z,6.45
2022-12-23T03:30:34.205Z,6.47
2022-12-23T03:33:10.431Z,6.45
2022-12-23T03:35:45.320Z,6.47
2022-12-23T03:38:14.898Z,6.46
2022-12-23T03:40:44.942Z,6.45
2022-12-23T03:43:23.080Z,6.47
2022-12-23T03:45:56.003Z,6.48
2022-12-23T03:48:51.710Z,6.49
2022-12-23T03:51:25.281Z,6.49
2022-12-23T03:54:01.652Z,6.51
2022-12-23T03:56:53.890Z,6.51
2022-12-23T03:59:26.940Z,6.51
2022-12-23T04:02:08.186Z,6.52
2022-12-23T04:05:13.325Z,6.51
2022-12-23T04:07:47.744Z,6.51
2022-12-23T04:10:14.887Z,6.50
2022-12-23T04:12:41.900Z,6.51
2022-12-23T04:15:12.770Z,6.53
2022-12-23T04:17:39.800Z,6.52
2022-12-23T04:20:07.360Z,6.53
2022-12-23T04:22:33.916Z,6.54
2022-12-23T04:25:00.437Z,6.55
2022-12-23T04:27:26.951Z,6.55
2022-12-23T04:29:53.400Z,6.55
2022-12-23T04:32:19.921Z,6.55
2022-12-23T04:34:46.412Z,6.53
2022-12-23T04:37:12.987Z,6.54
2022-12-23T04:39:39.554Z,6.55
2022-12-23T04:42:06.154Z,6.53
2022-12-23T04:44:32.745Z,6.55
2022-12-23T04:46:59.337Z,6.54
2022-12-23T04:49:26.020Z,6.54
2022-12-23T04:51:52.534Z,6.55
2022-12-23T04:54:19.049Z,6.55
2022-12-23T04:56:45.549Z,6.56
2022-12-23T04:59:12.127Z,6.55
2022-12-23T05:01:38.848Z,6.53
2022-12-23T05:04:05.465Z,6.55
2022-12-23T05:06:32.042Z,6.53
2022-12-23T05:08:58.584Z,6.53
2022-12-23T05:11:25.121Z,6.52
2022-12-23T05:13:51.679Z,6.53
2022-12-23T05:16:18.714Z,6.52
2022-12-23T05:18:45.271Z,6.54
2022-12-23T05:21:11.948Z,6.52
2022-12-23T05:23:38.719Z,6.51
2022-12-23T05:26:06.610Z,6.49
2022-12-23T05:28:33.404Z,6.47
2022-12-23T05:31:08.352Z,6.47
2022-12-23T05:33:35.570Z,6.46
2022-12-23T05:36:02.363Z,6.45
2022-12-23T05:38:28.923Z,6.41
2022-12-23T05:40:55.462Z,6.41
2022-12-23T05:43:22.151Z,6.39
2022-12-23T05:45:49.562Z,6.35
2022-12-23T05:48:16.588Z,6.32
2022-12-23T05:50:43.339Z,6.31
2022-12-23T05:53:10.130Z,6.28
2022-12-23T05:55:36.965Z,6.22
2022-12-23T05:58:05.969Z,6.21
2022-12-23T06:00:32.587Z,6.20
2022-12-23T06:02:59.255Z,6.16
2022-12-23T06:05:25.940Z,6.14
2022-12-23T06:07:52.586Z,6.14
2022-12-23T06:10:19.226Z,6.11
2022-12-23T06:12:45.713Z,6.12
2022-12-23T06:15:12.624Z,6.16
2022-12-23T06:17:39.123Z,6.18
2022-12-23T06:20:06.555Z,6.21
2022-12-23T06:22:33.303Z,6.23
2022-12-23T06:24:59.841Z,6.24
2022-12-23T06:27:26.562Z,6.25
2022-12-23T06:29:53.287Z,6.27
2022-12-23T06:32:19.943Z,6.28
2022-12-23T06:34:46.766Z,6.31
2022-12-23T06:37:13.354Z,6.32
2022-12-23T06:39:39.956Z,6.32
2022-12-23T06:42:06.499Z,6.33
2022-12-23T06:44:33.060Z,6.34
2022-12-23T06:46:59.637Z,6.34
2022-12-23T06:49:26.376Z,6.34
2022-12-23T06:51:52.951Z,6.35
2022-12-23T06:54:19.457Z,6.36
2022-12-23T06:56:46.053Z,6.36
2022-12-23T06:59:12.673Z,6.36
2022-12-23T07:01:40.703Z,6.37
2022-12-23T07:04:08.982Z,6.36
2022-12-23T07:06:35.580Z,6.37
2022-12-23T07:09:02.097Z,6.37
2022-12-23T07:11:28.837Z,6.38
2022-12-23T07:13:55.498Z,6.39
2022-12-23T07:16:22.071Z,6.40
2022-12-23T07:18:48.736Z,6.39
2022-12-23T07:21:22.901Z,6.38
2022-12-23T07:23:56.300Z,6.39
2022-12-23T07:26:22.987Z,6.41
2022-12-23T07:28:49.547Z,6.41
2022-12-23T07:31:16.827Z,6.41
2022-12-23T07:33:43.463Z,6.39
2022-12-23T07:36:10.313Z,6.40
2022-12-23T07:38:36.883Z,6.42
2022-12-23T07:41:03.484Z,6.42
2022-12-23T07:43:30.111Z,6.41
2022-12-23T07:46:00.472Z,6.41
2022-12-23T07:48:27.907Z,6.41
2022-12-23T07:51:03.323Z,6.41
2022-12-23T07:53:30.037Z,6.43
2022-12-23T07:55:57.073Z,6.42
2022-12-23T07:58:24.463Z,6.41
2022-12-23T08:00:51.070Z,6.41
2022-12-23T08:03:17.825Z,6.43
2022-12-23T08:05:45.174Z,6.43
2022-12-23T08:08:12.114Z,6.43
2022-12-23T08:10:44.360Z,6.43
2022-12-23T08:13:14.549Z,6.43
2022-12-23T08:15:41.061Z,6.45
2022-12-23T08:18:07.681Z,6.45
2022-12-23T08:20:34.238Z,6.45
2022-12-23T08:23:00.746Z,6.45
2022-12-23T08:25:27.247Z,6.46
2022-12-23T08:27:53.909Z,6.46
2022-12-23T08:30:21.178Z,6.46
2022-12-23T08:32:47.692Z,6.47
2022-12-23T08:35:14.351Z,6.48
2022-12-23T08:37:40.918Z,6.47
2022-12-23T08:40:08.092Z,6.49
2022-12-23T08:42:34.708Z,6.49
2022-12-23T08:45:01.216Z,6.49
2022-12-23T08:47:27.801Z,6.49
2022-12-23T08:49:54.607Z,6.52
2022-12-23T08:52:21.129Z,6.50
2022-12-23T08:54:47.706Z,6.50
2022-12-23T08:57:14.521Z,6.53
2022-12-23T08:59:41.017Z,6.52
2022-12-23T09:02:11.728Z,6.52
2022-12-23T09:04:38.460Z,6.52
2022-12-23T09:07:05.051Z,6.54
2022-12-23T09:09:31.602Z,6.54
2022-12-23T09:11:58.137Z,6.54
2022-12-23T09:14:24.698Z,6.53
2022-12-23T09:16:52.428Z,6.54
2022-12-23T09:19:19.056Z,6.55
2022-12-23T09:21:45.608Z,6.55
2022-12-23T09:24:12.344Z,6.55
2022-12-23T09:26:38.947Z,6.57
2022-12-23T09:29:11.819Z,6.56
2022-12-23T09:31:38.583Z,6.56
2022-12-23T09:34:06.070Z,6.57
2022-12-23T09:36:32.741Z,6.58
2022-12-23T09:38:59.579Z,6.58
2022-12-23T09:41:48.548Z,6.57
2022-12-23T09:44:23.978Z,6.60
2022-12-23T09:47:05.898Z,6.59
2022-12-23T09:49:33.766Z,6.60
2022-12-23T09:52:05.134Z,6.61
2022-12-23T09:54:47.543Z,6.61
2022-12-23T09:57:39.703Z,6.59
2022-12-23T10:00:13.328Z,6.62
2022-12-23T10:02:45.401Z,6.62
2022-12-23T10:05:21.096Z,6.64
2022-12-23T10:07:50.060Z,6.65
2022-12-23T10:10:43.931Z,6.65
2022-12-23T10:13:26.675Z,6.64
2022-12-23T10:15:56.235Z,6.65
2022-12-23T10:18:38.730Z,6.67
2022-12-23T10:21:11.681Z,6.66
2022-12-23T10:23:42.652Z,6.66
2022-12-23T10:26:39.985Z,6.68
2022-12-23T10:29:19.600Z,6.69
2022-12-23T10:32:17.237Z,6.70
2022-12-23T10:35:05.628Z,6.72
2022-12-23T10:37:35.193Z,6.72
2022-12-23T10:40:35.429Z,6.72
2022-12-23T10:43:39.191Z,6.74
2022-12-23T10:46:27.256Z,6.73
2022-12-23T10:49:09.030Z,6.75
2022-12-23T10:51:43.804Z,6.75
2022-12-23T10:54:14.856Z,6.79
2022-12-23T10:56:41.621Z,6.79
2022-12-23T10:59:15.303Z,6.79
2022-12-23T11:01:47.711Z,6.80
2022-12-23T11:04:18.322Z,6.80
2022-12-23T11:07:10.779Z,6.80
2022-12-23T11:09:40.914Z,6.83
2022-12-23T11:12:10.419Z,6.84
2022-12-23T11:14:59.397Z,6.85
2022-12-23T11:17:28.769Z,6.84
2022-12-23T11:20:14.157Z,6.85
2022-12-23T11:22:51.059Z,6.89
2022-12-23T11:25:41.655Z,6.95
2022-12-23T11:28:11.165Z,6.92
2022-12-23T11:30:56.274Z,6.92
2022-12-23T11:33:29.606Z,6.91
2022-12-23T11:36:23.903Z,6.91
2022-12-23T11:38:53.667Z,6.90
2022-12-23T11:41:27.922Z,6.89
2022-12-23T11:44:20.517Z,6.91
2022-12-23T11:46:48.017Z,6.91
2022-12-23T11:49:14.519Z,6.93
2022-12-23T11:51:42.019Z,6.93
2022-12-23T11:54:16.157Z,6.92
2022-12-23T11:56:43.170Z,6.92
2022-12-23T11:59:29.305Z,6.93
2022-12-23T12:02:01.428Z,6.92
2022-12-23T12:04:31.657Z,6.93
2022-12-23T12:06:58.587Z,6.94
2022-12-23T12:09:25.304Z,6.94
2022-12-23T12:11:56.649Z,6.93
2022-12-23T12:14:32.847Z,6.94
2022-12-23T12:17:14.241Z,6.95
2022-12-23T12:20:01.711Z,6.95
2022-12-23T12:22:33.620Z,6.94
2022-12-23T12:25:09.170Z,6.94
2022-12-23T12:27:39.547Z,6.95
2022-12-23T12:30:12.491Z,6.95
2022-12-23T12:32:54.435Z,6.96
2022-12-23T12:35:56.800Z,6.95
2022-12-23T12:38:36.536Z,6.96
2022-12-23T12:41:25.051Z,6.98
2022-12-23T12:44:08.148Z,6.96
2022-12-23T12:46:47.484Z,6.95
2022-12-23T12:49:30.661Z,6.96
2022-12-23T12:52:16.166Z,6.98
2022-12-23T12:54:48.760Z,6.99
2022-12-23T12:57:18.495Z,6.99
2022-12-23T12:59:48.380Z,7.00
2022-12-23T13:02:48.940Z,7.03
2022-12-23T13:05:21.518Z,7.03
2022-12-23T13:08:03.339Z,7.02
2022-12-23T13:11:45.195Z,7.04
2022-12-23T13:14:59.506Z,7.04
2022-12-23T13:17:38.448Z,7.04
2022-12-23T13:20:32.133Z,7.05
2022-12-23T13:23:34.408Z,7.04
2022-12-23T13:26:22.266Z,7.05
2022-12-23T13:29:16.064Z,7.05
2022-12-23T13:31:55.352Z,7.06
2022-12-23T13:34:52.381Z,7.07
2022-12-23T13:37:31.914Z,7.06
2022-12-23T13:40:29.403Z,7.06
2022-12-23T13:43:03.292Z,7.06
2022-12-23T13:45:37.031Z,7.05
2022-12-23T13:48:21.613Z,7.06
2022-12-23T13:51:07.727Z,7.06
2022-12-23T13:54:04.103Z,7.08
2022-12-23T13:56:54.331Z,7.08
2022-12-23T13:59:20.821Z,7.09
2022-12-23T14:01:49.111Z,7.10
2022-12-23T14:04:34.790Z,7.09
2022-12-23T14:07:05.631Z,7.12
2022-12-23T14:09:36.012Z,7.13
2022-12-23T14:12:12.964Z,7.15
2022-12-23T14:14:57.044Z,7.16
2022-12-23T14:17:37.183Z,7.21
2022-12-23T14:20:31.461Z,7.25
2022-12-23T14:23:16.107Z,7.29
2022-12-23T14:26:03.526Z,7.29
2022-12-23T14:28:45.117Z,7.34
2022-12-23T14:31:37.420Z,7.37
2022-12-23T14:34:28.559Z,7.38
2022-12-23T14:37:27.327Z,7.40
2022-12-23T14:39:54.079Z,7.41
2022-12-23T14:42:34.547Z,7.41
2022-12-23T14:45:29.092Z,7.43
2022-12-23T14:47:56.251Z,7.42
2022-12-23T14:50:42.819Z,7.42
2022-12-23T14:53:29.467Z,7.42
2022-12-23T14:56:21.659Z,7.44
2022-12-23T14:59:01.964Z,7.42
2022-12-23T15:01:47.774Z,7.44
2022-12-23T15:04:14.291Z,7.44
2022-12-23T15:06:44.333Z,7.45
2022-12-23T15:09:22.664Z,7.45
2022-12-23T15:11:49.447Z,7.46
2022-12-23T15:14:31.591Z,7.46
2022-12-23T15:16:58.325Z,7.46
2022-12-23T15:19:27.282Z,7.44
2022-12-23T15:22:20.730Z,7.46
2022-12-23T15:24:49.080Z,7.47
2022-12-23T15:27:27.251Z,7.47
2022-12-23T15:29:54.803Z,7.46
2022-12-23T15:32:23.715Z,7.47
2022-12-23T15:34:52.269Z,7.47
2022-12-23T15:37:28.139Z,7.47
2022-12-23T15:40:04.524Z,7.47
2022-12-23T15:42:35.384Z,7.46
2022-12-23T15:45:24.679Z,7.47
2022-12-23T15:47:51.219Z,7.47
2022-12-23T15:50:18.866Z,7.47
2022-12-23T15:52:47.423Z,7.46
2022-12-23T15:55:23.930Z,7.45
2022-12-23T15:57:52.279Z,7.47
2022-12-23T16:00:26.993Z,7.46
2022-12-23T16:03:01.824Z,7.46
2022-12-23T16:05:32.764Z,7.44
2022-12-23T16:08:28.290Z,7.47
2022-12-23T16:11:16.321Z,7.46
2022-12-23T16:13:59.549Z,7.46
2022-12-23T16:16:46.399Z,7.46
2022-12-23T16:19:37.973Z,7.46
2022-12-23T16:22:13.592Z,7.47
2022-12-23T16:25:12.364Z,7.47
2022-12-23T16:27:42.840Z,7.44
2022-12-23T16:30:21.540Z,7.46
2022-12-23T16:32:58.375Z,7.46
2022-12-23T16:35:40.259Z,7.46
2022-12-23T16:38:17.558Z,7.47
2022-12-23T16:40:46.545Z,7.46
2022-12-23T16:43:13.269Z,7.47
2022-12-23T16:45:40.567Z,7.47
2022-12-23T16:48:16.053Z,7.47
2022-12-23T16:50:42.734Z,7.47
2022-12-23T16:53:12.847Z,7.46
2022-12-23T16:55:42.887Z,7.48
2022-12-23T16:58:12.935Z,7.47
2022-12-23T17:00:40.585Z,7.47
2022-12-23T17:03:07.363Z,7.47
2022-12-23T17:05:34.013Z,7.47
2022-12-23T17:08:00.490Z,7.47
2022-12-23T17:10:27.271Z,7.47
2022-12-23T17:12:53.780Z,7.48
2022-12-23T17:15:23.217Z,7.46
2022-12-23T17:17:51.335Z,7.47
2022-12-23T17:20:19.454Z,7.48
2022-12-23T17:22:49.992Z,7.46
2022-12-23T17:25:26.354Z,7.46
2022-12-23T17:27:53.647Z,7.47
2022-12-23T17:30:23.510Z,7.47
2022-12-23T17:32:54.262Z,7.46
2022-12-23T17:35:21.606Z,7.47
2022-12-23T17:37:48.632Z,7.48
2022-12-23T17:40:16.439Z,7.46
2022-12-23T17:42:43.317Z,7.47
2022-12-23T17:45:22.951Z,7.44
2022-12-23T17:47:49.524Z,7.47
2022-12-23T17:50:16.204Z,7.46
2022-12-23T17:52:42.770Z,7.46
2022-12-23T17:55:23.705Z,7.44
2022-12-23T17:57:51.771Z,7.43
2022-12-23T18:00:28.003Z,7.42
2022-12-23T18:03:00.451Z,7.43
2022-12-23T18:05:28.207Z,7.42
2022-12-23T18:07:58.138Z,7.40
2022-12-23T18:10:39.795Z,7.40
2022-12-23T18:13:10.032Z,7.40
2022-12-23T18:15:39.445Z,7.40
2022-12-23T18:18:24.068Z,7.39
2022-12-23T18:20:56.878Z,7.38
2022-12-23T18:23:32.093Z,7.38
2022-12-23T18:25:59.044Z,7.37
2022-12-23T18:28:26.032Z,7.38
2022-12-23T18:30:55.481Z,7.37
2022-12-23T18:33:24.101Z,7.37
2022-12-23T18:35:51.111Z,7.37
2022-12-23T18:38:18.367Z,7.36
2022-12-23T18:40:45.645Z,7.35
2022-12-23T18:43:20.867Z,7.35
2022-12-23T18:45:52.893Z,7.35
2022-12-23T18:48:20.237Z,7.33
2022-12-23T18:50:47.003Z,7.31
2022-12-23T18:53:23.885Z,7.27
2022-12-23T18:55:51.475Z,7.27
2022-12-23T18:58:18.873Z,7.23
2022-12-23T19:00:46.247Z,7.21
2022-12-23T19:03:20.090Z,7.20
2022-12-23T19:05:48.727Z,7.20
2022-12-23T19:08:20.290Z,7.18
2022-12-23T19:10:51.155Z,7.13
2022-12-23T19:13:17.808Z,7.09
2022-12-23T19:15:45.206Z,7.07
2022-12-23T19:18:17.107Z,7.00
2022-12-23T19:20:45.341Z,7.00
2022-12-23T19:23:11.976Z,6.96
2022-12-23T19:25:46.100Z,6.94
2022-12-23T19:28:18.925Z,6.95
2022-12-23T19:30:45.571Z,6.95
2022-12-23T19:33:13.318Z,6.97
2022-12-23T19:35:43.039Z,6.96
2022-12-23T19:38:10.137Z,6.98
2022-12-23T19:40:36.754Z,6.98
2022-12-23T19:43:03.540Z,6.99
2022-12-23T19:45:30.118Z,6.99
2022-12-23T19:47:56.680Z,7.01
2022-12-23T19:50:23.223Z,6.99
2022-12-23T19:52:52.709Z,7.02
2022-12-23T19:55:19.267Z,6.99
2022-12-23T19:57:45.802Z,7.01
2022-12-23T20:00:12.860Z,7.02
2022-12-23T20:02:39.486Z,7.02
2022-12-23T20:05:06.346Z,7.02
2022-12-23T20:07:35.301Z,7.03
2022-12-23T20:10:02.140Z,7.03
2022-12-23T20:12:28.691Z,7.02
2022-12-23T20:14:55.266Z,7.02
2022-12-23T20:17:21.818Z,7.02
2022-12-23T20:19:48.338Z,7.01
2022-12-23T20:22:14.882Z,7.02
2022-12-23T20:24:41.373Z,6.97
2022-12-23T20:27:11.704Z,6.96
2022-12-23T20:29:39.871Z,6.92
2022-12-23T20:32:06.400Z,6.95
2022-12-23T20:34:38.734Z,6.97
2022-12-23T20:37:06.152Z,6.96
2022-12-23T20:39:32.726Z,6.96
2022-12-23T20:41:59.348Z,6.96
2022-12-23T20:44:35.589Z,6.95
2022-12-23T20:47:03.385Z,6.91
2022-12-23T20:49:30.070Z,6.91
2022-12-23T20:51:56.781Z,6.93
2022-12-23T20:54:29.777Z,6.94
2022-12-23T20:56:59.102Z,6.94
2022-12-23T20:59:25.688Z,6.93
2022-12-23T21:01:52.297Z,6.94
2022-12-23T21:04:18.989Z,6.94
2022-12-23T21:06:45.632Z,6.94
2022-12-23T21:09:14.586Z,6.95
2022-12-23T21:11:44.683Z,6.94
2022-12-23T21:14:11.881Z,6.96
2022-12-23T21:16:38.688Z,6.97
2022-12-23T21:19:12.558Z,6.96
2022-12-23T21:21:39.076Z,6.96
2022-12-23T21:24:05.958Z,6.98
2022-12-23T21:26:34.851Z,6.99
2022-12-23T21:29:03.970Z,6.97
2022-12-23T21:31:32.598Z,6.95
2022-12-23T21:33:59.227Z,6.98
2022-12-23T21:36:29.045Z,6.98
2022-12-23T21:38:55.636Z,6.98
2022-12-23T21:41:25.655Z,6.99
2022-12-23T21:43:52.240Z,7.01
2022-12-23T21:46:21.117Z,7.02
2022-12-23T21:48:48.683Z,7.00
2022-12-23T21:51:20.366Z,7.02
2022-12-23T21:53:49.719Z,7.00
2022-12-23T21:56:19.786Z,6.99
2022-12-23T21:58:46.787Z,6.99
2022-12-23T22:01:16.719Z,6.98
2022-12-23T22:03:45.030Z,6.97
2022-12-23T22:06:15.155Z,6.96
2022-12-23T22:08:42.910Z,6.96
2022-12-23T22:11:12.767Z,6.95
2022-12-23T22:13:39.917Z,6.91
2022-12-23T22:16:11.529Z,6.78
2022-12-23T22:18:39.122Z,6.78
2022-12-23T22:21:07.807Z,6.76
2022-12-23T22:23:34.635Z,6.75
2022-12-23T22:26:01.171Z,6.77
2022-12-23T22:28:27.896Z,6.73
2022-12-23T22:31:01.997Z,6.74
2022-12-23T22:33:28.525Z,6.71
2022-12-23T22:35:56.235Z,6.68
2022-12-23T22:38:23.015Z,6.64
2022-12-23T22:40:53.273Z,6.59
2022-12-23T22:43:20.555Z,6.58
2022-12-23T22:45:47.418Z,6.58
2022-12-23T22:48:15.328Z,6.57
2022-12-23T22:50:41.851Z,6.52
2022-12-23T22:53:11.072Z,6.50
2022-12-23T22:55:37.573Z,6.48
2022-12-23T22:58:04.053Z,6.45
2022-12-23T23:00:30.869Z,6.42
2022-12-23T23:02:57.650Z,6.42
2022-12-23T23:05:24.259Z,6.41
2022-12-23T23:07:50.880Z,6.38
2022-12-23T23:10:17.886Z,6.37
2022-12-23T23:12:44.645Z,6.36
2022-12-23T23:15:11.460Z,6.31
2022-12-23T23:17:38.167Z,6.31
2022-12-23T23:20:05.020Z,6.32
2022-12-23T23:22:31.657Z,6.24
2022-12-23T23:24:58.135Z,6.21
2022-12-23T23:27:24.655Z,6.23
2022-12-23T23:29:51.185Z,6.20
2022-12-23T23:32:17.730Z,6.16
2022-12-23T23:34:44.252Z,6.15
2022-12-23T23:37:10.863Z,6.12
2022-12-23T23:39:37.450Z,6.06
2022-12-23T23:42:04.160Z,6.06
2022-12-23T23:44:30.699Z,6.06
2022-12-23T23:46:57.202Z,6.03
2022-12-23T23:49:23.912Z,6.02
2022-12-23T23:51:50.545Z,5.98
2022-12-23T23:54:17.275Z,5.96
2022-12-23T23:56:43.773Z,5.99
2022-12-23T23:59:10.350Z,5.96
